createdAt,value
2023-05-05T00:00:10.226Z,32.79
2023-05-05T00:00:40.336Z,32.80
2023-05-05T00:01:10.444Z,32.80
2023-05-05T00:01:40.565Z,32.79
2023-05-05T00:02:10.731Z,32.72
2023-05-05T00:02:40.771Z,32.77
2023-05-05T00:03:10.848Z,32.72
2023-05-05T00:03:40.964Z,32.77
2023-05-05T00:04:11.036Z,32.80
2023-05-05T00:04:41.018Z,32.81
2023-05-05T00:05:11.121Z,32.79
2023-05-05T00:05:41.197Z,32.77
2023-05-05T00:06:11.277Z,32.72
2023-05-05T00:06:41.340Z,32.80
2023-05-05T00:07:11.412Z,32.81
2023-05-05T00:07:41.516Z,32.81
2023-05-05T00:08:11.579Z,32.77
2023-05-05T00:08:41.664Z,32.77
2023-05-05T00:09:11.746Z,32.83
2023-05-05T00:09:41.834Z,32.79
2023-05-05T00:10:11.911Z,32.77
2023-05-05T00:10:41.915Z,32.81
2023-05-05T00:11:12.020Z,32.80
2023-05-05T00:11:42.105Z,32.81
2023-05-05T00:12:12.160Z,32.80
2023-05-05T00:12:42.273Z,32.72
2023-05-05T00:13:12.327Z,32.78
2023-05-05T00:13:42.332Z,32.75
2023-05-05T00:14:12.408Z,32.79
2023-05-05T00:14:42.491Z,32.81
2023-05-05T00:15:12.573Z,32.83
2023-05-05T00:15:42.681Z,32.80
2023-05-05T00:16:12.790Z,32.78
2023-05-05T00:16:42.904Z,32.78
2023-05-05T00:17:13.193Z,32.77
2023-05-05T00:17:43.175Z,32.77
2023-05-05T00:18:13.145Z,32.80
2023-05-05T00:18:43.261Z,32.80
2023-05-05T00:19:13.256Z,32.80
2023-05-05T00:19:43.360Z,32.79
2023-05-05T00:20:13.472Z,32.80
2023-05-05T00:20:43.627Z,32.77
2023-05-05T00:21:13.592Z,32.81
2023-05-05T00:21:43.698Z,32.78
2023-05-05T00:22:13.804Z,32.81
2023-05-05T00:22:43.922Z,32.79
2023-05-05T00:23:14.024Z,32.85
2023-05-05T00:23:44.133Z,32.81
2023-05-05T00:24:14.130Z,32.81
2023-05-05T00:24:44.237Z,32.81
2023-05-05T00:25:14.344Z,32.80
2023-05-05T00:25:44.498Z,32.81
2023-05-05T00:26:14.473Z,32.77
2023-05-05T00:26:44.608Z,32.77
2023-05-05T00:27:14.717Z,32.79
2023-05-05T00:27:44.815Z,32.80
2023-05-05T00:28:14.951Z,32.72
2023-05-05T00:28:44.939Z,32.85
2023-05-05T00:29:15.054Z,32.79
2023-05-05T00:29:45.176Z,32.77
2023-05-05T00:30:15.327Z,32.78
2023-05-05T00:30:45.326Z,32.80
2023-05-05T00:31:15.458Z,32.76
2023-05-05T00:31:45.455Z,32.83
2023-05-05T00:32:15.570Z,32.81
2023-05-05T00:32:45.742Z,32.86
2023-05-05T00:33:15.703Z,32.78
2023-05-05T00:33:45.748Z,32.89
2023-05-05T00:34:15.870Z,32.83
2023-05-05T00:34:45.982Z,32.83
2023-05-05T00:35:16.095Z,32.89
2023-05-05T00:35:46.095Z,32.91
2023-05-05T00:36:16.205Z,32.88
2023-05-05T00:36:46.314Z,32.83
2023-05-05T00:37:16.428Z,32.88
2023-05-05T00:37:46.548Z,32.88
2023-05-05T00:38:16.660Z,32.85
2023-05-05T00:38:46.769Z,32.93
2023-05-05T00:39:16.888Z,32.91
2023-05-05T00:39:46.990Z,32.88
2023-05-05T00:40:17.103Z,32.89
2023-05-05T00:40:47.218Z,32.91
2023-05-05T00:41:17.331Z,32.93
2023-05-05T00:41:47.459Z,32.97
2023-05-05T00:42:17.571Z,32.96
2023-05-05T00:42:47.673Z,32.96
2023-05-05T00:43:17.762Z,32.96
2023-05-05T00:43:47.876Z,33.00
2023-05-05T00:44:17.996Z,32.97
2023-05-05T00:44:48.103Z,32.96
2023-05-05T00:45:18.210Z,32.97
2023-05-05T00:45:48.317Z,33.02
2023-05-05T00:46:18.447Z,32.95
2023-05-05T00:46:48.493Z,32.99
2023-05-05T00:47:18.584Z,33.04
2023-05-05T00:47:48.735Z,33.02
2023-05-05T00:48:18.768Z,33.02
2023-05-05T00:48:48.923Z,33.06
2023-05-05T00:49:18.936Z,33.07
2023-05-05T00:49:48.925Z,33.02
2023-05-05T00:50:19.041Z,33.04
2023-05-05T00:50:49.193Z,33.07
2023-05-05T00:51:19.179Z,33.02
2023-05-05T00:51:49.290Z,33.07
2023-05-05T00:52:19.405Z,33.01
2023-05-05T00:52:49.512Z,33.06
2023-05-05T00:53:19.629Z,33.07
2023-05-05T00:53:49.737Z,33.09
2023-05-05T00:54:19.847Z,33.07
2023-05-05T00:54:49.958Z,33.07
2023-05-05T00:55:20.074Z,33.10
2023-05-05T00:55:50.177Z,33.06
2023-05-05T00:56:20.287Z,33.07
2023-05-05T00:56:50.417Z,33.07
2023-05-05T00:57:20.507Z,33.06
2023-05-05T00:57:50.622Z,33.07
2023-05-05T00:58:20.736Z,33.09
2023-05-05T00:58:50.847Z,33.12
2023-05-05T00:59:20.892Z,33.12
2023-05-05T00:59:50.999Z,33.09
2023-05-05T01:00:21.111Z,33.09
2023-05-05T01:00:51.221Z,33.06
2023-05-05T01:01:21.360Z,33.04
2023-05-05T01:01:51.371Z,33.04
2023-05-05T01:02:21.371Z,33.06
2023-05-05T01:02:51.568Z,33.04
2023-05-05T01:03:21.631Z,33.10
2023-05-05T01:03:51.733Z,33.09
2023-05-05T01:04:21.651Z,33.10
2023-05-05T01:04:51.749Z,33.06
2023-05-05T01:05:21.837Z,33.10
2023-05-05T01:05:51.913Z,33.09
2023-05-05T01:06:21.985Z,33.09
2023-05-05T01:06:52.059Z,33.11
2023-05-05T01:07:22.136Z,33.09
2023-05-05T01:07:52.226Z,33.07
2023-05-05T01:08:22.301Z,33.10
2023-05-05T01:08:52.372Z,33.12
2023-05-05T01:09:22.445Z,33.09
2023-05-05T01:10:01.030Z,33.07
2023-05-05T01:10:22.992Z,33.10
2023-05-05T01:10:52.660Z,33.10
2023-05-05T01:11:22.739Z,33.04
2023-05-05T01:11:52.830Z,33.07
2023-05-05T01:12:22.880Z,33.12
2023-05-05T01:12:52.979Z,33.13
2023-05-05T01:13:23.056Z,33.13
2023-05-05T01:13:53.134Z,33.04
2023-05-05T01:14:23.214Z,33.02
2023-05-05T01:14:53.273Z,33.03
2023-05-05T01:15:23.391Z,33.07
2023-05-05T01:15:53.484Z,33.04
2023-05-05T01:16:23.450Z,32.99
2023-05-05T01:16:53.424Z,33.07
2023-05-05T01:17:23.559Z,33.03
2023-05-05T01:17:53.579Z,33.07
2023-05-05T01:18:23.556Z,33.02
2023-05-05T01:18:53.667Z,33.05
2023-05-05T01:19:23.811Z,33.00
2023-05-05T01:19:53.886Z,33.02
2023-05-05T01:20:24.024Z,33.00
2023-05-05T01:20:54.010Z,32.99
2023-05-05T01:21:24.126Z,32.97
2023-05-05T01:21:54.242Z,32.94
2023-05-05T01:22:24.377Z,32.97
2023-05-05T01:22:54.351Z,32.89
2023-05-05T01:23:24.466Z,32.99
2023-05-05T01:23:54.581Z,33.02
2023-05-05T01:24:24.695Z,32.96
2023-05-05T01:24:54.803Z,32.94
2023-05-05T01:25:24.953Z,32.95
2023-05-05T01:25:54.952Z,32.94
2023-05-05T01:26:25.055Z,32.99
2023-05-05T01:26:55.193Z,32.95
2023-05-05T01:27:25.286Z,32.92
2023-05-05T01:27:55.390Z,33.00
2023-05-05T01:28:25.508Z,32.97
2023-05-05T01:28:55.628Z,33.00
2023-05-05T01:29:25.748Z,32.94
2023-05-05T01:29:55.847Z,32.99
2023-05-05T01:30:25.979Z,32.95
2023-05-05T01:30:55.971Z,32.96
2023-05-05T01:31:56.216Z,32.92
2023-05-05T01:32:26.175Z,32.96
2023-05-05T01:32:56.287Z,32.97
2023-05-05T01:33:26.252Z,32.95
2023-05-05T01:33:56.370Z,32.95
2023-05-05T01:34:26.486Z,32.92
2023-05-05T01:34:56.599Z,32.94
2023-05-05T01:35:26.729Z,32.99
2023-05-05T01:35:56.732Z,32.94
2023-05-05T01:36:26.841Z,32.94
2023-05-05T01:36:56.978Z,33.00
2023-05-05T01:37:27.079Z,33.02
2023-05-05T01:37:57.184Z,32.94
2023-05-05T01:38:27.301Z,32.99
2023-05-05T01:38:57.409Z,32.99
2023-05-05T01:39:27.516Z,32.99
2023-05-05T01:39:57.622Z,32.99
2023-05-05T01:40:27.804Z,32.97
2023-05-05T01:40:57.773Z,32.99
2023-05-05T01:41:27.896Z,33.03
2023-05-05T01:41:57.904Z,32.97
2023-05-05T01:42:27.998Z,33.00
2023-05-05T01:42:58.110Z,33.00
2023-05-05T01:43:28.217Z,32.99
2023-05-05T01:43:58.328Z,32.95
2023-05-05T01:44:28.439Z,32.94
2023-05-05T01:44:58.555Z,32.95
2023-05-05T01:45:28.715Z,32.95
2023-05-05T01:45:58.801Z,32.95
2023-05-05T01:46:28.805Z,32.94
2023-05-05T01:46:58.923Z,33.02
2023-05-05T01:47:29.042Z,32.97
2023-05-05T01:47:59.214Z,32.95
2023-05-05T01:48:29.187Z,32.99
2023-05-05T01:48:59.295Z,33.02
2023-05-05T01:49:29.411Z,32.99
2023-05-05T01:49:59.527Z,32.97
2023-05-05T01:50:29.681Z,33.00
2023-05-05T01:50:59.656Z,33.00
2023-05-05T01:51:29.767Z,33.00
2023-05-05T01:51:59.880Z,32.99
2023-05-05T01:52:29.988Z,32.94
2023-05-05T01:53:00.129Z,32.92
2023-05-05T01:53:30.106Z,33.02
2023-05-05T01:54:00.213Z,32.99
2023-05-05T01:54:30.319Z,33.00
2023-05-05T01:55:00.439Z,33.00
2023-05-05T01:55:30.566Z,33.03
2023-05-05T01:56:00.552Z,32.98
2023-05-05T01:56:30.684Z,32.97
2023-05-05T01:57:00.681Z,32.95
2023-05-05T01:57:30.767Z,32.95
2023-05-05T01:58:00.882Z,33.00
2023-05-05T01:58:30.989Z,33.00
2023-05-05T01:59:01.116Z,32.99
2023-05-05T01:59:31.209Z,32.98
2023-05-05T02:00:01.363Z,33.02
2023-05-05T02:00:31.405Z,32.97
2023-05-05T02:01:01.391Z,32.99
2023-05-05T02:02:01.502Z,33.02
2023-05-05T02:02:31.641Z,32.97
2023-05-05T02:03:01.593Z,32.97
2023-05-05T02:03:31.641Z,32.95
2023-05-05T02:04:01.602Z,33.07
2023-05-05T02:04:31.709Z,33.02
2023-05-05T02:05:01.822Z,33.00
2023-05-05T02:05:31.954Z,33.01
2023-05-05T02:06:02.032Z,33.03
2023-05-05T02:06:32.099Z,33.05
2023-05-05T02:07:02.165Z,33.05
2023-05-05T02:07:32.245Z,33.03
2023-05-05T02:08:02.311Z,33.00
2023-05-05T02:08:32.387Z,32.97
2023-05-05T02:09:02.471Z,33.06
2023-05-05T02:09:32.546Z,33.00
2023-05-05T02:10:02.619Z,33.03
2023-05-05T02:10:32.712Z,33.03
2023-05-05T02:11:02.774Z,33.05
2023-05-05T02:11:32.863Z,33.06
2023-05-05T02:12:02.950Z,32.97
2023-05-05T02:12:33.031Z,33.00
2023-05-05T02:13:03.157Z,32.98
2023-05-05T02:13:33.278Z,33.02
2023-05-05T02:14:03.364Z,33.05
2023-05-05T02:14:33.447Z,33.06
2023-05-05T02:15:03.515Z,33.02
2023-05-05T02:15:33.665Z,33.00
2023-05-05T02:16:03.708Z,33.05
2023-05-05T02:16:33.693Z,33.00
2023-05-05T02:17:03.809Z,32.97
2023-05-05T02:17:33.924Z,33.03
2023-05-05T02:18:04.060Z,33.05
2023-05-05T02:18:34.142Z,33.05
2023-05-05T02:19:04.261Z,33.05
2023-05-05T02:19:34.251Z,33.05
2023-05-05T02:20:04.364Z,33.00
2023-05-05T02:20:34.500Z,32.98
2023-05-05T02:21:04.490Z,33.03
2023-05-05T02:21:34.605Z,33.02
2023-05-05T02:22:04.722Z,33.03
2023-05-05T02:22:34.821Z,33.06
2023-05-05T02:23:04.937Z,33.05
2023-05-05T02:23:35.049Z,33.02
2023-05-05T02:24:05.168Z,33.06
2023-05-05T02:24:35.282Z,33.03
2023-05-05T02:25:05.388Z,33.03
2023-05-05T02:25:35.517Z,33.02
2023-05-05T02:26:05.505Z,32.96
2023-05-05T02:26:35.622Z,33.03
2023-05-05T02:27:05.754Z,33.09
2023-05-05T02:27:35.839Z,33.09
2023-05-05T02:28:05.954Z,33.08
2023-05-05T02:28:36.065Z,33.06
2023-05-05T02:29:06.171Z,33.06
2023-05-05T02:29:36.293Z,33.01
2023-05-05T02:30:06.783Z,33.01
2023-05-05T02:30:36.503Z,33.05
2023-05-05T02:31:06.518Z,33.05
2023-05-05T02:31:36.573Z,33.03
2023-05-05T02:32:06.556Z,33.03
2023-05-05T02:32:36.750Z,33.06
2023-05-05T02:33:06.787Z,33.06
2023-05-05T02:33:36.814Z,33.11
2023-05-05T02:34:06.919Z,33.08
2023-05-05T02:34:37.036Z,33.06
2023-05-05T02:35:07.150Z,33.03
2023-05-05T02:35:37.290Z,33.03
2023-05-05T02:36:07.264Z,33.09
2023-05-05T02:36:37.433Z,33.06
2023-05-05T02:37:07.425Z,33.08
2023-05-05T02:37:37.543Z,33.08
2023-05-05T02:38:07.647Z,33.05
2023-05-05T02:38:37.758Z,33.08
2023-05-05T02:39:07.867Z,33.06
2023-05-05T02:39:37.984Z,33.08
2023-05-05T02:40:08.345Z,33.06
2023-05-05T02:40:38.131Z,33.06
2023-05-05T02:41:08.122Z,33.09
2023-05-05T02:41:38.252Z,33.09
2023-05-05T02:42:08.375Z,33.05
2023-05-05T02:42:38.534Z,33.11
2023-05-05T02:43:08.548Z,33.05
2023-05-05T02:43:38.543Z,33.08
2023-05-05T02:44:08.654Z,33.16
2023-05-05T02:44:38.742Z,33.08
2023-05-05T02:45:08.850Z,33.11
2023-05-05T02:45:38.994Z,33.06
2023-05-05T02:46:08.985Z,33.06
2023-05-05T02:46:39.117Z,33.16
2023-05-05T02:47:09.112Z,33.13
2023-05-05T02:47:39.278Z,33.13
2023-05-05T02:48:09.329Z,33.13
2023-05-05T02:48:39.299Z,33.11
2023-05-05T02:49:09.409Z,33.09
2023-05-05T02:49:39.519Z,33.17
2023-05-05T02:50:09.947Z,33.14
2023-05-05T02:50:39.733Z,33.14
2023-05-05T02:51:09.711Z,33.07
2023-05-05T02:51:39.831Z,33.09
2023-05-05T02:52:09.933Z,33.09
2023-05-05T02:52:40.054Z,33.07
2023-05-05T02:53:10.171Z,33.09
2023-05-05T02:53:40.267Z,33.06
2023-05-05T02:54:10.376Z,33.11
2023-05-05T02:54:40.487Z,33.06
2023-05-05T02:55:10.603Z,33.09
2023-05-05T02:55:40.735Z,33.17
2023-05-05T02:56:10.723Z,33.17
2023-05-05T02:56:40.840Z,33.11
2023-05-05T02:57:10.904Z,33.13
2023-05-05T02:57:40.871Z,33.21
2023-05-05T02:58:10.988Z,33.17
2023-05-05T02:58:41.095Z,33.14
2023-05-05T02:59:11.210Z,33.14
2023-05-05T02:59:41.227Z,33.17
2023-05-05T03:00:11.325Z,33.24
2023-05-05T03:00:41.465Z,33.17
2023-05-05T03:01:11.512Z,33.16
2023-05-05T03:01:41.609Z,33.17
2023-05-05T03:02:11.594Z,33.21
2023-05-05T03:02:41.787Z,33.18
2023-05-05T03:03:11.797Z,33.21
2023-05-05T03:03:41.997Z,33.18
2023-05-05T03:04:11.903Z,33.17
2023-05-05T03:04:42.016Z,33.17
2023-05-05T03:05:12.115Z,33.22
2023-05-05T03:05:42.220Z,33.18
2023-05-05T03:06:12.302Z,33.28
2023-05-05T03:06:42.374Z,33.25
2023-05-05T03:07:12.446Z,33.25
2023-05-05T03:07:42.514Z,33.25
2023-05-05T03:08:12.585Z,33.27
2023-05-05T03:08:42.665Z,33.29
2023-05-05T03:09:12.725Z,33.32
2023-05-05T03:09:42.808Z,33.30
2023-05-05T03:10:12.878Z,33.30
2023-05-05T03:10:42.965Z,33.30
2023-05-05T03:11:13.034Z,33.30
2023-05-05T03:11:43.104Z,33.32
2023-05-05T03:12:13.210Z,33.33
2023-05-05T03:12:43.271Z,33.27
2023-05-05T03:13:13.557Z,33.33
2023-05-05T03:13:43.421Z,33.33
2023-05-05T03:14:13.497Z,33.35
2023-05-05T03:14:43.578Z,33.30
2023-05-05T03:15:13.662Z,33.30
2023-05-05T03:15:43.780Z,33.22
2023-05-05T03:16:13.838Z,33.30
2023-05-05T03:16:43.896Z,33.24
2023-05-05T03:17:13.962Z,33.25
2023-05-05T03:17:44.110Z,33.25
2023-05-05T03:18:14.176Z,33.28
2023-05-05T03:18:44.164Z,33.32
2023-05-05T03:19:14.267Z,33.30
2023-05-05T03:19:44.387Z,33.24
2023-05-05T03:20:14.494Z,33.32
2023-05-05T03:20:44.533Z,33.27
2023-05-05T03:21:14.523Z,33.30
2023-05-05T03:21:44.632Z,33.30
2023-05-05T03:22:14.744Z,33.30
2023-05-05T03:22:44.857Z,33.35
2023-05-05T03:23:14.968Z,33.30
2023-05-05T03:23:45.082Z,33.30
2023-05-05T03:24:15.192Z,33.22
2023-05-05T03:24:45.301Z,33.25
2023-05-05T03:25:15.413Z,33.25
2023-05-05T03:25:45.550Z,33.18
2023-05-05T03:26:15.554Z,33.29
2023-05-05T03:26:45.677Z,33.25
2023-05-05T03:27:15.815Z,33.25
2023-05-05T03:27:45.772Z,33.37
2023-05-05T03:28:15.892Z,33.32
2023-05-05T03:28:46.007Z,33.30
2023-05-05T03:29:16.011Z,33.29
2023-05-05T03:29:46.009Z,33.30
2023-05-05T03:30:16.125Z,33.30
2023-05-05T03:30:46.235Z,33.30
2023-05-05T03:31:16.234Z,33.30
2023-05-05T03:31:46.362Z,33.27
2023-05-05T03:32:16.395Z,33.33
2023-05-05T03:32:46.455Z,33.31
2023-05-05T03:33:16.444Z,33.31
2023-05-05T03:33:46.583Z,33.27
2023-05-05T03:34:16.565Z,33.33
2023-05-05T03:34:46.674Z,33.30
2023-05-05T03:35:16.784Z,33.30
2023-05-05T03:35:46.911Z,33.28
2023-05-05T03:36:17.034Z,33.32
2023-05-05T03:36:47.127Z,33.25
2023-05-05T03:37:17.237Z,33.25
2023-05-05T03:37:47.347Z,33.31
2023-05-05T03:38:17.464Z,33.28
2023-05-05T03:38:47.571Z,33.25
2023-05-05T03:39:17.677Z,33.31
2023-05-05T03:39:47.791Z,33.28
2023-05-05T03:40:17.906Z,33.42
2023-05-05T03:40:48.023Z,33.57
2023-05-05T03:41:18.134Z,33.45
2023-05-05T03:41:48.248Z,33.45
2023-05-05T03:42:18.565Z,33.41
2023-05-05T03:42:48.405Z,33.41
2023-05-05T03:43:18.509Z,33.45
2023-05-05T03:43:48.619Z,33.44
2023-05-05T03:44:18.804Z,33.37
2023-05-05T03:44:48.770Z,33.39
2023-05-05T03:45:18.874Z,33.43
2023-05-05T03:45:48.999Z,33.36
2023-05-05T03:46:19.274Z,33.39
2023-05-05T03:46:49.152Z,33.39
2023-05-05T03:47:19.257Z,33.43
2023-05-05T03:47:49.397Z,33.90
2023-05-05T03:48:19.500Z,33.74
2023-05-05T03:48:49.598Z,33.66
2023-05-05T03:49:19.707Z,33.62
2023-05-05T03:49:49.838Z,33.63
2023-05-05T03:50:19.954Z,33.52
2023-05-05T03:50:50.096Z,33.57
2023-05-05T03:51:20.082Z,33.64
2023-05-05T03:51:50.185Z,33.74
2023-05-05T03:52:20.295Z,33.73
2023-05-05T03:52:50.406Z,33.71
2023-05-05T03:53:20.518Z,33.70
2023-05-05T03:53:50.657Z,33.62
2023-05-05T03:54:20.635Z,33.64
2023-05-05T03:54:50.753Z,33.65
2023-05-05T03:55:20.851Z,33.57
2023-05-05T03:55:50.983Z,33.67
2023-05-05T03:56:21.082Z,33.64
2023-05-05T03:56:51.190Z,33.64
2023-05-05T03:57:21.323Z,33.73
2023-05-05T03:57:51.411Z,33.75
2023-05-05T03:58:21.516Z,33.78
2023-05-05T03:58:51.627Z,33.83
2023-05-05T03:59:21.736Z,33.86
2023-05-05T03:59:51.858Z,33.91
2023-05-05T04:00:21.995Z,34.01
2023-05-05T04:00:51.967Z,33.96
2023-05-05T04:01:52.037Z,33.87
2023-05-05T04:02:22.217Z,33.80
2023-05-05T04:02:52.335Z,33.79
2023-05-05T04:03:22.700Z,33.82
2023-05-05T04:03:52.588Z,33.83
2023-05-05T04:04:22.604Z,33.72
2023-05-05T04:04:52.560Z,33.80
2023-05-05T04:05:22.650Z,33.77
2023-05-05T04:05:52.992Z,33.78
2023-05-05T04:06:22.823Z,33.69
2023-05-05T04:07:22.930Z,33.69
2023-05-05T04:07:53.008Z,33.95
2023-05-05T04:08:23.070Z,33.96
2023-05-05T04:08:53.150Z,33.89
2023-05-05T04:09:23.219Z,33.98
2023-05-05T04:09:53.288Z,33.98
2023-05-05T04:10:23.368Z,33.93
2023-05-05T04:10:53.456Z,34.02
2023-05-05T04:11:23.534Z,33.99
2023-05-05T04:11:53.603Z,33.96
2023-05-05T04:12:23.742Z,34.09
2023-05-05T04:12:53.851Z,34.05
2023-05-05T04:13:23.844Z,33.99
2023-05-05T04:13:53.935Z,33.93
2023-05-05T04:14:24.017Z,33.91
2023-05-05T04:14:54.092Z,33.93
2023-05-05T04:15:24.195Z,34.17
2023-05-05T04:15:54.330Z,34.22
2023-05-05T04:16:24.423Z,34.12
2023-05-05T04:16:54.339Z,34.16
2023-05-05T04:17:24.451Z,34.41
2023-05-05T04:17:54.586Z,34.32
2023-05-05T04:18:24.567Z,34.29
2023-05-05T04:19:24.631Z,34.34
2023-05-05T04:19:54.742Z,34.44
2023-05-05T04:20:24.865Z,34.31
2023-05-05T04:20:54.977Z,34.40
2023-05-05T04:21:24.970Z,34.30
2023-05-05T04:21:55.085Z,34.32
2023-05-05T04:22:25.194Z,34.34
2023-05-05T04:22:55.331Z,34.34
2023-05-05T04:23:25.438Z,34.33
2023-05-05T04:23:55.420Z,34.28
2023-05-05T04:24:25.534Z,34.33
2023-05-05T04:24:55.639Z,34.35
2023-05-05T04:25:25.777Z,34.23
2023-05-05T04:25:55.885Z,34.33
2023-05-05T04:26:25.885Z,34.33
2023-05-05T04:26:55.994Z,34.30
2023-05-05T04:27:26.144Z,34.41
2023-05-05T04:27:56.131Z,34.61
2023-05-05T04:28:26.249Z,34.53
2023-05-05T04:28:56.358Z,34.45
2023-05-05T04:29:26.476Z,34.43
2023-05-05T04:29:56.582Z,34.38
2023-05-05T04:30:26.695Z,34.47
2023-05-05T04:30:56.843Z,34.41
2023-05-05T04:31:26.862Z,34.40
2023-05-05T04:31:56.923Z,34.44
2023-05-05T04:32:26.905Z,34.40
2023-05-05T04:32:56.981Z,34.38
2023-05-05T04:33:26.980Z,34.32
2023-05-05T04:33:57.082Z,34.30
2023-05-05T04:34:27.199Z,34.25
2023-05-05T04:34:57.307Z,34.23
2023-05-05T04:35:27.420Z,34.24
2023-05-05T04:35:57.541Z,34.24
2023-05-05T04:36:27.657Z,34.25
2023-05-05T04:36:57.769Z,34.21
2023-05-05T04:37:27.887Z,34.47
2023-05-05T04:37:57.994Z,34.40
2023-05-05T04:38:28.124Z,34.38
2023-05-05T04:38:58.142Z,34.36
2023-05-05T04:39:28.116Z,34.33
2023-05-05T04:39:58.221Z,34.24
2023-05-05T04:40:28.349Z,34.31
2023-05-05T04:40:58.337Z,34.36
2023-05-05T04:41:30.028Z,34.33
2023-05-05T04:41:58.537Z,34.48
2023-05-05T04:42:28.621Z,34.44
2023-05-05T04:42:58.748Z,34.53
2023-05-05T04:43:28.867Z,34.56
2023-05-05T04:43:58.965Z,34.48
2023-05-05T04:44:29.065Z,34.53
2023-05-05T04:44:59.182Z,34.51
2023-05-05T04:45:29.300Z,34.54
2023-05-05T04:45:59.420Z,34.75
2023-05-05T04:46:29.473Z,34.75
2023-05-05T04:46:59.453Z,34.76
2023-05-05T04:47:29.605Z,34.81
2023-05-05T04:47:59.614Z,34.88
2023-05-05T04:48:29.604Z,34.93
2023-05-05T04:48:59.707Z,34.96
2023-05-05T04:49:29.817Z,35.20
2023-05-05T04:49:59.928Z,35.14
2023-05-05T04:50:30.044Z,35.11
2023-05-05T04:51:00.173Z,35.21
2023-05-05T04:51:30.275Z,35.29
2023-05-05T04:52:00.394Z,35.32
2023-05-05T04:52:30.505Z,35.77
2023-05-05T04:53:00.614Z,35.60
2023-05-05T04:53:30.730Z,35.80
2023-05-05T04:54:00.842Z,35.80
2023-05-05T04:54:30.956Z,35.93
2023-05-05T04:55:01.080Z,35.89
2023-05-05T04:55:31.188Z,36.00
2023-05-05T04:56:01.324Z,36.08
2023-05-05T04:56:31.320Z,36.05
2023-05-05T04:57:01.432Z,35.89
2023-05-05T04:57:31.540Z,35.84
2023-05-05T04:58:01.692Z,35.74
2023-05-05T04:58:31.649Z,35.80
2023-05-05T04:59:01.777Z,35.73
2023-05-05T04:59:31.888Z,35.60
2023-05-05T05:00:02.059Z,35.71
2023-05-05T05:00:32.046Z,35.69
2023-05-05T05:01:02.170Z,35.62
2023-05-05T05:01:32.170Z,35.62
2023-05-05T05:02:02.295Z,35.58
2023-05-05T05:02:32.375Z,35.49
2023-05-05T05:03:02.512Z,35.64
2023-05-05T05:03:32.594Z,35.60
2023-05-05T05:04:02.567Z,35.57
2023-05-05T05:04:32.562Z,35.53
2023-05-05T05:05:02.708Z,35.51
2023-05-05T05:05:32.771Z,35.49
2023-05-05T05:06:02.900Z,35.56
2023-05-05T05:06:32.966Z,35.51
2023-05-05T05:07:03.043Z,35.51
2023-05-05T05:07:33.130Z,35.32
2023-05-05T05:08:03.210Z,35.38
2023-05-05T05:08:33.280Z,35.31
2023-05-05T05:09:03.411Z,35.31
2023-05-05T05:09:33.492Z,35.30
2023-05-05T05:10:03.588Z,35.27
2023-05-05T05:10:33.652Z,35.24
2023-05-05T05:11:03.730Z,35.21
2023-05-05T05:11:33.803Z,35.18
2023-05-05T05:12:03.882Z,35.26
2023-05-05T05:12:34.049Z,35.18
2023-05-05T05:13:04.086Z,35.13
2023-05-05T05:13:34.050Z,35.18
2023-05-05T05:14:04.118Z,35.16
2023-05-05T05:14:34.218Z,35.22
2023-05-05T05:15:04.286Z,35.20
2023-05-05T05:15:34.410Z,35.22
2023-05-05T05:16:04.546Z,35.24
2023-05-05T05:16:34.575Z,35.04
2023-05-05T05:17:04.564Z,35.01
2023-05-05T05:17:34.723Z,35.11
2023-05-05T05:18:04.814Z,35.07
2023-05-05T05:18:34.825Z,35.03
2023-05-05T05:19:04.812Z,35.10
2023-05-05T05:19:34.937Z,35.03
2023-05-05T05:20:05.115Z,35.01
2023-05-05T05:20:35.000Z,35.12
2023-05-05T05:21:05.147Z,35.15
2023-05-05T05:21:35.113Z,35.33
2023-05-05T05:22:05.247Z,35.36
2023-05-05T05:22:35.230Z,35.38
2023-05-05T05:23:05.414Z,35.22
2023-05-05T05:23:35.396Z,35.29
2023-05-05T05:24:05.505Z,35.40
2023-05-05T05:24:35.635Z,35.32
2023-05-05T05:25:05.753Z,35.30
2023-05-05T05:25:35.856Z,35.25
2023-05-05T05:26:05.972Z,35.16
2023-05-05T05:26:35.973Z,35.18
2023-05-05T05:27:07.935Z,35.19
2023-05-05T05:27:36.179Z,35.11
2023-05-05T05:28:10.792Z,35.09
2023-05-05T05:28:36.312Z,35.22
2023-05-05T05:29:06.287Z,35.12
2023-05-05T05:29:36.398Z,35.06
2023-05-05T05:30:06.748Z,35.06
2023-05-05T05:30:36.583Z,35.09
2023-05-05T05:31:06.717Z,35.07
2023-05-05T05:31:36.751Z,35.05
2023-05-05T05:32:06.962Z,35.06
2023-05-05T05:32:36.950Z,34.95
2023-05-05T05:33:07.006Z,34.90
2023-05-05T05:33:36.979Z,34.83
2023-05-05T05:34:07.098Z,34.89
2023-05-05T05:34:37.215Z,34.77
2023-05-05T05:35:07.319Z,34.76
2023-05-05T05:35:37.442Z,34.79
2023-05-05T05:36:07.571Z,34.65
2023-05-05T05:36:37.544Z,34.72
2023-05-05T05:37:07.667Z,34.75
2023-05-05T05:37:37.721Z,34.72
2023-05-05T05:38:07.699Z,34.72
2023-05-05T05:38:37.733Z,34.66
2023-05-05T05:39:07.715Z,34.70
2023-05-05T05:39:37.821Z,34.65
2023-05-05T05:40:08.134Z,34.66
2023-05-05T05:40:37.992Z,34.57
2023-05-05T05:41:08.112Z,34.50
2023-05-05T05:41:38.223Z,34.57
2023-05-05T05:42:08.335Z,34.58
2023-05-05T05:42:38.327Z,34.55
2023-05-05T05:43:08.451Z,34.53
2023-05-05T05:43:38.571Z,34.60
2023-05-05T05:44:08.691Z,34.55
2023-05-05T05:44:38.645Z,34.52
2023-05-05T05:45:08.773Z,34.60
2023-05-05T05:45:38.815Z,34.58
2023-05-05T05:46:09.441Z,34.55
2023-05-05T05:46:38.979Z,34.52
2023-05-05T05:47:09.005Z,34.47
2023-05-05T05:47:39.163Z,34.47
2023-05-05T05:48:09.209Z,34.52
2023-05-05T05:48:39.239Z,34.55
2023-05-05T05:49:09.213Z,34.49
2023-05-05T05:49:39.323Z,34.40
2023-05-05T05:50:09.682Z,34.44
2023-05-05T05:50:39.452Z,34.37
2023-05-05T05:51:39.527Z,34.40
2023-05-05T05:52:09.630Z,34.40
2023-05-05T05:52:39.741Z,34.42
2023-05-05T05:53:09.855Z,34.42
2023-05-05T05:53:39.965Z,34.33
2023-05-05T05:54:10.086Z,34.36
2023-05-05T05:54:40.202Z,34.31
2023-05-05T05:55:10.319Z,34.31
2023-05-05T05:55:40.453Z,34.32
2023-05-05T05:56:10.434Z,34.35
2023-05-05T05:56:40.551Z,34.42
2023-05-05T05:57:10.677Z,34.34
2023-05-05T05:57:40.778Z,34.35
2023-05-05T05:58:10.891Z,34.37
2023-05-05T05:58:41.008Z,34.40
2023-05-05T05:59:11.138Z,34.38
2023-05-05T05:59:41.236Z,34.42
2023-05-05T06:00:11.457Z,34.38
2023-05-05T06:00:41.456Z,34.33
2023-05-05T06:01:11.464Z,34.35
2023-05-05T06:01:41.449Z,34.39
2023-05-05T06:02:11.590Z,34.39
2023-05-05T06:02:41.656Z,34.43
2023-05-05T06:03:11.689Z,34.42
2023-05-05T06:03:41.869Z,34.50
2023-05-05T06:04:11.868Z,34.40
2023-05-05T06:04:41.959Z,34.35
2023-05-05T06:05:11.932Z,34.43
2023-05-05T06:05:42.011Z,34.40
2023-05-05T06:06:12.086Z,34.39
2023-05-05T06:06:42.162Z,34.46
2023-05-05T06:07:12.231Z,34.49
2023-05-05T06:07:42.346Z,34.43
2023-05-05T06:08:12.402Z,34.49
2023-05-05T06:08:42.474Z,34.45
2023-05-05T06:09:12.547Z,34.40
2023-05-05T06:09:42.650Z,34.43
2023-05-05T06:10:26.653Z,34.39
2023-05-05T06:10:42.835Z,34.42
2023-05-05T06:11:12.914Z,34.43
2023-05-05T06:11:43.013Z,34.45
2023-05-05T06:12:13.087Z,34.54
2023-05-05T06:12:43.241Z,34.56
2023-05-05T06:13:13.275Z,34.56
2023-05-05T06:13:43.237Z,34.53
2023-05-05T06:14:13.307Z,34.53
2023-05-05T06:14:43.417Z,34.65
2023-05-05T06:15:13.488Z,34.59
2023-05-05T06:15:43.653Z,34.72
2023-05-05T06:16:13.762Z,34.72
2023-05-05T06:16:43.759Z,34.66
2023-05-05T06:17:13.873Z,34.65
2023-05-05T06:17:44.009Z,34.58
2023-05-05T06:18:14.150Z,34.55
2023-05-05T06:18:44.136Z,34.50
2023-05-05T06:19:14.255Z,34.49
2023-05-05T06:19:44.258Z,34.48
2023-05-05T06:20:14.380Z,34.45
2023-05-05T06:20:44.387Z,34.46
2023-05-05T06:21:44.446Z,34.46
2023-05-05T06:22:14.573Z,34.48
2023-05-05T06:22:44.677Z,34.42
2023-05-05T06:23:14.784Z,34.39
2023-05-05T06:23:44.912Z,34.43
2023-05-05T06:24:14.897Z,34.45
2023-05-05T06:24:45.010Z,34.45
2023-05-05T06:25:15.135Z,34.42
2023-05-05T06:25:45.121Z,34.36
2023-05-05T06:26:15.254Z,34.26
2023-05-05T06:26:45.258Z,34.32
2023-05-05T06:27:15.255Z,34.55
2023-05-05T06:27:45.387Z,34.47
2023-05-05T06:28:15.377Z,34.48
2023-05-05T06:28:45.481Z,34.57
2023-05-05T06:29:15.609Z,34.53
2023-05-05T06:29:45.726Z,34.68
2023-05-05T06:30:15.812Z,34.66
2023-05-05T06:30:45.774Z,34.61